sensor_id;sensor_type;location;lat;lon;timestamp;P1;durP1;ratioP1;P2;durP2;ratioP2
25525;SDS011;13424;48.424;11.258;2023-11-22T00:00:22;28.27;;;16.95;;
25525;SDS011;13424;48.424;11.258;2023-11-22T00:02:48;34.58;;;18.85;;
25525;SDS011;13424;48.424;11.258;2023-11-22T00:05:14;29.70;;;17.98;;
25525;SDS011;13424;48.424;11.258;2023-11-22T00:07:40;33.67;;;19.02;;
25525;SDS011;13424;48.424;11.258;2023-11-22T00:10:07;28.67;;;17.60;;
25525;SDS011;13424;48.424;11.258;2023-11-22T00:12:34;34.33;;;18.77;;
25525;SDS011;13424;48.424;11.258;2023-11-22T00:15:04;29.05;;;18.67;;
25525;SDS011;13424;48.424;11.258;2023-11-22T00:17:32;34.40;;;19.00;;
25525;SDS011;13424;48.424;11.258;2023-11-22T00:19:59;35.22;;;19.05;;
25525;SDS011;13424;48.424;11.258;2023-11-22T00:22:28;36.70;;;20.10;;
25525;SDS011;13424;48.424;11.258;2023-11-22T00:24:58;34.40;;;18.35;;
25525;SDS011;13424;48.424;11.258;2023-11-22T00:27:30;30.80;;;18.38;;
25525;SDS011;13424;48.424;11.258;2023-11-22T00:29:59;27.77;;;18.05;;
25525;SDS011;13424;48.424;11.258;2023-11-22T00:32:25;29.63;;;18.05;;
25525;SDS011;13424;48.424;11.258;2023-11-22T00:34:51;30.63;;;17.20;;
25525;SDS011;13424;48.424;11.258;2023-11-22T00:37:18;33.10;;;18.25;;
25525;SDS011;13424;48.424;11.258;2023-11-22T00:39:44;29.08;;;17.83;;
25525;SDS011;13424;48.424;11.258;2023-11-22T00:42:10;32.00;;;16.83;;
25525;SDS011;13424;48.424;11.258;2023-11-22T00:44:36;32.80;;;19.00;;
25525;SDS011;13424;48.424;11.258;2023-11-22T00:47:06;36.80;;;18.65;;
25525;SDS011;13424;48.424;11.258;2023-11-22T00:49:32;30.75;;;18.05;;
25525;SDS011;13424;48.424;11.258;2023-11-22T00:51:58;34.03;;;19.08;;
25525;SDS011;13424;48.424;11.258;2023-11-22T00:54:24;29.48;;;18.33;;
25525;SDS011;13424;48.424;11.258;2023-11-22T00:56:51;30.17;;;18.42;;
25525;SDS011;13424;48.424;11.258;2023-11-22T00:59:17;29.27;;;18.42;;
25525;SDS011;13424;48.424;11.258;2023-11-22T01:01:44;34.33;;;19.25;;
25525;SDS011;13424;48.424;11.258;2023-11-22T01:04:10;9.93;;;7.43;;
25525;SDS011;13424;48.424;11.258;2023-11-22T01:06:36;8.23;;;6.47;;
25525;SDS011;13424;48.424;11.258;2023-11-22T01:09:03;5.32;;;3.95;;
25525;SDS011;13424;48.424;11.258;2023-11-22T01:11:29;6.15;;;4.63;;
25525;SDS011;13424;48.424;11.258;2023-11-22T01:13:55;8.65;;;4.40;;
25525;SDS011;13424;48.424;11.258;2023-11-22T01:16:21;7.90;;;5.28;;
25525;SDS011;13424;48.424;11.258;2023-11-22T01:18:48;5.75;;;4.65;;
25525;SDS011;13424;48.424;11.258;2023-11-22T01:21:15;6.05;;;5.45;;
25525;SDS011;13424;48.424;11.258;2023-11-22T01:23:40;5.65;;;4.97;;
25525;SDS011;13424;48.424;11.258;2023-11-22T01:26:06;8.93;;;4.88;;
25525;SDS011;13424;48.424;11.258;2023-11-22T01:28:32;6.82;;;5.40;;
25525;SDS011;13424;48.424;11.258;2023-11-22T01:31:00;7.30;;;5.55;;
25525;SDS011;13424;48.424;11.258;2023-11-22T01:33:29;7.75;;;5.22;;
25525;SDS011;13424;48.424;11.258;2023-11-22T01:39:08;10.80;;;6.50;;
25525;SDS011;13424;48.424;11.258;2023-11-22T01:41:37;9.02;;;6.15;;
25525;SDS011;13424;48.424;11.258;2023-11-22T01:44:04;9.68;;;6.65;;
25525;SDS011;13424;48.424;11.258;2023-11-22T01:46:30;10.18;;;7.10;;
25525;SDS011;13424;48.424;11.258;2023-11-22T01:48:56;11.70;;;6.85;;
25525;SDS011;13424;48.424;11.258;2023-11-22T01:51:22;9.38;;;6.63;;
25525;SDS011;13424;48.424;11.258;2023-11-22T01:53:51;10.20;;;6.05;;
25525;SDS011;13424;48.424;11.258;2023-11-22T01:56:26;10.30;;;6.53;;
25525;SDS011;13424;48.424;11.258;2023-11-22T01:58:54;10.00;;;6.20;;
25525;SDS011;13424;48.424;11.258;2023-11-22T02:04:34;9.93;;;6.10;;
25525;SDS011;13424;48.424;11.258;2023-11-22T02:07:03;10.65;;;6.20;;
25525;SDS011;13424;48.424;11.258;2023-11-22T02:09:29;8.63;;;6.28;;
25525;SDS011;13424;48.424;11.258;2023-11-22T02:11:55;13.48;;;6.78;;
25525;SDS011;13424;48.424;11.258;2023-11-22T02:14:21;11.75;;;7.00;;
25525;SDS011;13424;48.424;11.258;2023-11-22T02:16:47;11.65;;;6.93;;
25525;SDS011;13424;48.424;11.258;2023-11-22T02:22:47;9.70;;;6.57;;
25525;SDS011;13424;48.424;11.258;2023-11-22T02:25:13;12.05;;;7.20;;
25525;SDS011;13424;48.424;11.258;2023-11-22T02:27:40;10.52;;;6.85;;
25525;SDS011;13424;48.424;11.258;2023-11-22T02:30:08;11.32;;;6.82;;
25525;SDS011;13424;48.424;11.258;2023-11-22T02:32:36;11.30;;;7.03;;
25525;SDS011;13424;48.424;11.258;2023-11-22T02:35:04;11.93;;;7.10;;
25525;SDS011;13424;48.424;11.258;2023-11-22T02:37:36;9.43;;;7.65;;
25525;SDS011;13424;48.424;11.258;2023-11-22T02:40:06;11.70;;;7.30;;
25525;SDS011;13424;48.424;11.258;2023-11-22T02:42:43;11.25;;;6.65;;
25525;SDS011;13424;48.424;11.258;2023-11-22T02:45:09;13.13;;;7.68;;
25525;SDS011;13424;48.424;11.258;2023-11-22T02:47:35;12.23;;;7.78;;
25525;SDS011;13424;48.424;11.258;2023-11-22T02:50:02;11.02;;;7.82;;
25525;SDS011;13424;48.424;11.258;2023-11-22T02:52:31;16.90;;;7.70;;
25525;SDS011;13424;48.424;11.258;2023-11-22T02:54:58;14.15;;;8.85;;
25525;SDS011;13424;48.424;11.258;2023-11-22T02:57:24;12.95;;;7.63;;
25525;SDS011;13424;48.424;11.258;2023-11-22T02:59:51;13.68;;;7.47;;
25525;SDS011;13424;48.424;11.258;2023-11-22T03:02:17;11.35;;;7.15;;
25525;SDS011;13424;48.424;11.258;2023-11-22T03:04:43;13.70;;;7.97;;
25525;SDS011;13424;48.424;11.258;2023-11-22T03:07:10;8.63;;;6.60;;
25525;SDS011;13424;48.424;11.258;2023-11-22T03:09:36;10.35;;;6.55;;
25525;SDS011;13424;48.424;11.258;2023-11-22T03:12:02;12.65;;;6.75;;
25525;SDS011;13424;48.424;11.258;2023-11-22T03:14:28;9.60;;;6.68;;
25525;SDS011;13424;48.424;11.258;2023-11-22T03:16:55;8.23;;;6.47;;
25525;SDS011;13424;48.424;11.258;2023-11-22T03:19:21;10.25;;;6.43;;
25525;SDS011;13424;48.424;11.258;2023-11-22T03:21:46;11.73;;;5.93;;
25525;SDS011;13424;48.424;11.258;2023-11-22T03:24:12;9.30;;;6.32;;
25525;SDS011;13424;48.424;11.258;2023-11-22T03:26:41;10.57;;;5.97;;
25525;SDS011;13424;48.424;11.258;2023-11-22T03:29:07;10.05;;;6.80;;
25525;SDS011;13424;48.424;11.258;2023-11-22T03:31:33;10.90;;;7.07;;
25525;SDS011;13424;48.424;11.258;2023-11-22T03:33:59;10.07;;;7.00;;
25525;SDS011;13424;48.424;11.258;2023-11-22T03:36:26;10.52;;;6.97;;
25525;SDS011;13424;48.424;11.258;2023-11-22T03:38:52;10.10;;;7.10;;
25525;SDS011;13424;48.424;11.258;2023-11-22T03:44:35;12.32;;;6.55;;
25525;SDS011;13424;48.424;11.258;2023-11-22T03:47:01;8.73;;;6.25;;
25525;SDS011;13424;48.424;11.258;2023-11-22T03:49:27;9.27;;;6.63;;
25525;SDS011;13424;48.424;11.258;2023-11-22T03:51:54;9.70;;;5.60;;
25525;SDS011;13424;48.424;11.258;2023-11-22T03:54:20;9.48;;;6.18;;
25525;SDS011;13424;48.424;11.258;2023-11-22T03:56:46;9.73;;;6.25;;
25525;SDS011;13424;48.424;11.258;2023-11-22T03:59:12;11.50;;;6.72;;
25525;SDS011;13424;48.424;11.258;2023-11-22T04:01:38;11.48;;;6.85;;
25525;SDS011;13424;48.424;11.258;2023-11-22T04:04:04;8.98;;;6.20;;
25525;SDS011;13424;48.424;11.258;2023-11-22T04:06:30;9.82;;;6.97;;
25525;SDS011;13424;48.424;11.258;2023-11-22T04:08:58;9.65;;;5.72;;
25525;SDS011;13424;48.424;11.258;2023-11-22T04:11:24;9.13;;;6.40;;
25525;SDS011;13424;48.424;11.258;2023-11-22T04:13:53;9.25;;;6.10;;
25525;SDS011;13424;48.424;11.258;2023-11-22T04:20:10;10.95;;;7.30;;
25525;SDS011;13424;48.424;11.258;2023-11-22T04:22:42;9.38;;;6.18;;
25525;SDS011;13424;48.424;11.258;2023-11-22T04:25:12;8.55;;;5.10;;
25525;SDS011;13424;48.424;11.258;2023-11-22T04:27:39;9.63;;;6.97;;
25525;SDS011;13424;48.424;11.258;2023-11-22T04:30:07;8.07;;;6.13;;
25525;SDS011;13424;48.424;11.258;2023-11-22T04:32:38;9.63;;;5.75;;
25525;SDS011;13424;48.424;11.258;2023-11-22T04:35:05;8.82;;;6.18;;
25525;SDS011;13424;48.424;11.258;2023-11-22T04:37:32;9.30;;;5.60;;
25525;SDS011;13424;48.424;11.258;2023-11-22T04:39:59;9.63;;;6.50;;
25525;SDS011;13424;48.424;11.258;2023-11-22T04:42:26;8.40;;;5.72;;
25525;SDS011;13424;48.424;11.258;2023-11-22T04:44:53;11.13;;;6.05;;
25525;SDS011;13424;48.424;11.258;2023-11-22T04:47:20;10.30;;;6.00;;
25525;SDS011;13424;48.424;11.258;2023-11-22T04:49:48;11.18;;;6.13;;
25525;SDS011;13424;48.424;11.258;2023-11-22T04:52:14;6.65;;;5.05;;
25525;SDS011;13424;48.424;11.258;2023-11-22T04:54:40;7.90;;;5.30;;
25525;SDS011;13424;48.424;11.258;2023-11-22T04:57:07;7.53;;;5.38;;
25525;SDS011;13424;48.424;11.258;2023-11-22T04:59:33;7.70;;;4.88;;
25525;SDS011;13424;48.424;11.258;2023-11-22T05:01:59;8.75;;;5.55;;
25525;SDS011;13424;48.424;11.258;2023-11-22T05:04:25;8.75;;;5.45;;
25525;SDS011;13424;48.424;11.258;2023-11-22T05:06:53;7.72;;;5.78;;
25525;SDS011;13424;48.424;11.258;2023-11-22T05:09:19;6.72;;;4.70;;
25525;SDS011;13424;48.424;11.258;2023-11-22T05:11:45;8.45;;;5.80;;
25525;SDS011;13424;48.424;11.258;2023-11-22T05:14:11;7.68;;;5.03;;
25525;SDS011;13424;48.424;11.258;2023-11-22T05:16:38;8.27;;;5.05;;
25525;SDS011;13424;48.424;11.258;2023-11-22T05:19:05;8.15;;;5.00;;
25525;SDS011;13424;48.424;11.258;2023-11-22T05:21:31;7.38;;;5.18;;
25525;SDS011;13424;48.424;11.258;2023-11-22T05:27:10;5.43;;;4.60;;
25525;SDS011;13424;48.424;11.258;2023-11-22T05:29:36;5.82;;;4.82;;
25525;SDS011;13424;48.424;11.258;2023-11-22T05:32:03;6.68;;;4.50;;
25525;SDS011;13424;48.424;11.258;2023-11-22T05:34:29;13.82;;;6.28;;
25525;SDS011;13424;48.424;11.258;2023-11-22T05:36:55;11.02;;;7.47;;
25525;SDS011;13424;48.424;11.258;2023-11-22T05:39:21;15.80;;;10.95;;
25525;SDS011;13424;48.424;11.258;2023-11-22T05:41:48;21.83;;;11.68;;
25525;SDS011;13424;48.424;11.258;2023-11-22T05:44:14;19.83;;;12.77;;
25525;SDS011;13424;48.424;11.258;2023-11-22T05:46:40;18.30;;;12.23;;
25525;SDS011;13424;48.424;11.258;2023-11-22T05:49:07;20.30;;;14.20;;
25525;SDS011;13424;48.424;11.258;2023-11-22T05:51:33;20.00;;;12.98;;
25525;SDS011;13424;48.424;11.258;2023-11-22T05:53:59;16.92;;;12.70;;
25525;SDS011;13424;48.424;11.258;2023-11-22T05:56:25;16.58;;;10.68;;
25525;SDS011;13424;48.424;11.258;2023-11-22T05:58:51;18.75;;;11.90;;
25525;SDS011;13424;48.424;11.258;2023-11-22T06:01:17;22.10;;;13.20;;
25525;SDS011;13424;48.424;11.258;2023-11-22T06:03:43;19.05;;;12.65;;
25525;SDS011;13424;48.424;11.258;2023-11-22T06:06:09;18.45;;;12.52;;
25525;SDS011;13424;48.424;11.258;2023-11-22T06:12:17;19.17;;;12.57;;
25525;SDS011;13424;48.424;11.258;2023-11-22T06:14:46;20.25;;;12.25;;
25525;SDS011;13424;48.424;11.258;2023-11-22T06:17:12;18.00;;;11.30;;
25525;SDS011;13424;48.424;11.258;2023-11-22T06:19:40;18.83;;;11.98;;
25525;SDS011;13424;48.424;11.258;2023-11-22T06:22:09;22.13;;;12.30;;
25525;SDS011;13424;48.424;11.258;2023-11-22T06:24:35;18.77;;;12.40;;
25525;SDS011;13424;48.424;11.258;2023-11-22T06:27:02;14.98;;;10.90;;
25525;SDS011;13424;48.424;11.258;2023-11-22T06:29:28;19.23;;;12.25;;
25525;SDS011;13424;48.424;11.258;2023-11-22T06:31:54;21.63;;;11.02;;
25525;SDS011;13424;48.424;11.258;2023-11-22T06:34:20;15.45;;;9.98;;
25525;SDS011;13424;48.424;11.258;2023-11-22T06:36:46;15.15;;;10.05;;
25525;SDS011;13424;48.424;11.258;2023-11-22T06:39:12;16.20;;;9.73;;
25525;SDS011;13424;48.424;11.258;2023-11-22T06:41:41;16.48;;;9.80;;
25525;SDS011;13424;48.424;11.258;2023-11-22T06:44:07;15.98;;;9.82;;
25525;SDS011;13424;48.424;11.258;2023-11-22T06:46:33;13.30;;;8.98;;
25525;SDS011;13424;48.424;11.258;2023-11-22T06:48:59;14.07;;;9.07;;
25525;SDS011;13424;48.424;11.258;2023-11-22T06:51:25;12.52;;;9.05;;
25525;SDS011;13424;48.424;11.258;2023-11-22T06:53:51;13.98;;;9.23;;
25525;SDS011;13424;48.424;11.258;2023-11-22T06:56:19;17.08;;;10.73;;
25525;SDS011;13424;48.424;11.258;2023-11-22T06:58:45;18.88;;;10.63;;
25525;SDS011;13424;48.424;11.258;2023-11-22T07:01:12;20.30;;;10.25;;
25525;SDS011;13424;48.424;11.258;2023-11-22T07:03:38;17.33;;;10.15;;
25525;SDS011;13424;48.424;11.258;2023-11-22T07:06:05;15.60;;;11.27;;
25525;SDS011;13424;48.424;11.258;2023-11-22T07:08:33;15.13;;;10.00;;
25525;SDS011;13424;48.424;11.258;2023-11-22T07:11:00;20.60;;;10.48;;
25525;SDS011;13424;48.424;11.258;2023-11-22T07:13:28;14.98;;;9.52;;
25525;SDS011;13424;48.424;11.258;2023-11-22T07:15:54;15.32;;;8.55;;
25525;SDS011;13424;48.424;11.258;2023-11-22T07:18:23;16.80;;;9.80;;
25525;SDS011;13424;48.424;11.258;2023-11-22T07:20:50;12.30;;;8.80;;
25525;SDS011;13424;48.424;11.258;2023-11-22T07:23:28;15.02;;;8.05;;
25525;SDS011;13424;48.424;11.258;2023-11-22T07:25:54;14.18;;;9.13;;
25525;SDS011;13424;48.424;11.258;2023-11-22T07:28:20;14.57;;;8.15;;
25525;SDS011;13424;48.424;11.258;2023-11-22T07:30:46;15.68;;;8.95;;
25525;SDS011;13424;48.424;11.258;2023-11-22T07:33:14;13.07;;;9.80;;
25525;SDS011;13424;48.424;11.258;2023-11-22T07:35:46;16.92;;;9.95;;
25525;SDS011;13424;48.424;11.258;2023-11-22T07:38:12;13.05;;;8.85;;
25525;SDS011;13424;48.424;11.258;2023-11-22T07:40:38;13.20;;;9.65;;
25525;SDS011;13424;48.424;11.258;2023-11-22T07:43:04;15.27;;;8.88;;
25525;SDS011;13424;48.424;11.258;2023-11-22T07:45:31;12.48;;;8.63;;
25525;SDS011;13424;48.424;11.258;2023-11-22T07:47:57;12.02;;;9.43;;
25525;SDS011;13424;48.424;11.258;2023-11-22T07:50:28;13.70;;;8.68;;
25525;SDS011;13424;48.424;11.258;2023-11-22T07:52:55;11.32;;;8.35;;
25525;SDS011;13424;48.424;11.258;2023-11-22T07:55:21;10.27;;;7.93;;
25525;SDS011;13424;48.424;11.258;2023-11-22T07:57:48;13.02;;;8.68;;
25525;SDS011;13424;48.424;11.258;2023-11-22T08:00:17;11.73;;;7.78;;
25525;SDS011;13424;48.424;11.258;2023-11-22T08:02:47;13.98;;;8.95;;
25525;SDS011;13424;48.424;11.258;2023-11-22T08:05:15;12.10;;;8.32;;
25525;SDS011;13424;48.424;11.258;2023-11-22T08:07:42;13.15;;;8.82;;
25525;SDS011;13424;48.424;11.258;2023-11-22T08:10:09;13.57;;;8.90;;
25525;SDS011;13424;48.424;11.258;2023-11-22T08:16:38;10.38;;;7.20;;
25525;SDS011;13424;48.424;11.258;2023-11-22T08:19:10;15.25;;;9.38;;
25525;SDS011;13424;48.424;11.258;2023-11-22T08:21:37;12.55;;;8.15;;
25525;SDS011;13424;48.424;11.258;2023-11-22T08:24:04;14.43;;;8.30;;
25525;SDS011;13424;48.424;11.258;2023-11-22T08:26:30;11.45;;;7.85;;
25525;SDS011;13424;48.424;11.258;2023-11-22T08:28:56;11.57;;;8.48;;
25525;SDS011;13424;48.424;11.258;2023-11-22T08:31:22;12.48;;;7.90;;
25525;SDS011;13424;48.424;11.258;2023-11-22T08:33:48;10.50;;;7.90;;
25525;SDS011;13424;48.424;11.258;2023-11-22T08:36:14;11.65;;;7.80;;
25525;SDS011;13424;48.424;11.258;2023-11-22T08:38:40;14.35;;;8.77;;
25525;SDS011;13424;48.424;11.258;2023-11-22T08:41:08;10.60;;;8.52;;
25525;SDS011;13424;48.424;11.258;2023-11-22T08:43:38;13.27;;;9.02;;
25525;SDS011;13424;48.424;11.258;2023-11-22T08:46:05;11.23;;;7.72;;
25525;SDS011;13424;48.424;11.258;2023-11-22T08:48:35;15.43;;;7.18;;
25525;SDS011;13424;48.424;11.258;2023-11-22T08:51:02;11.43;;;7.95;;
25525;SDS011;13424;48.424;11.258;2023-11-22T08:53:29;12.55;;;7.00;;
25525;SDS011;13424;48.424;11.258;2023-11-22T08:55:55;8.82;;;6.47;;
25525;SDS011;13424;48.424;11.258;2023-11-22T09:02:56;9.50;;;6.78;;
25525;SDS011;13424;48.424;11.258;2023-11-22T09:05:22;11.38;;;6.93;;
25525;SDS011;13424;48.424;11.258;2023-11-22T09:07:48;9.85;;;7.30;;
25525;SDS011;13424;48.424;11.258;2023-11-22T09:10:16;9.85;;;7.20;;
25525;SDS011;13424;48.424;11.258;2023-11-22T09:12:44;10.63;;;7.40;;
25525;SDS011;13424;48.424;11.258;2023-11-22T09:15:11;10.70;;;7.63;;
25525;SDS011;13424;48.424;11.258;2023-11-22T09:17:44;12.13;;;8.27;;
25525;SDS011;13424;48.424;11.258;2023-11-22T09:20:17;13.05;;;7.55;;
25525;SDS011;13424;48.424;11.258;2023-11-22T09:22:48;12.13;;;8.30;;
25525;SDS011;13424;48.424;11.258;2023-11-22T09:25:17;11.80;;;8.43;;
25525;SDS011;13424;48.424;11.258;2023-11-22T09:27:47;20.98;;;11.82;;
25525;SDS011;13424;48.424;11.258;2023-11-22T09:30:19;18.05;;;11.70;;
25525;SDS011;13424;48.424;11.258;2023-11-22T09:33:03;11.32;;;8.65;;
25525;SDS011;13424;48.424;11.258;2023-11-22T09:35:33;16.25;;;9.88;;
25525;SDS011;13424;48.424;11.258;2023-11-22T09:38:01;10.55;;;8.18;;
25525;SDS011;13424;48.424;11.258;2023-11-22T09:40:43;12.68;;;9.05;;
25525;SDS011;13424;48.424;11.258;2023-11-22T09:43:11;15.38;;;9.15;;
25525;SDS011;13424;48.424;11.258;2023-11-22T09:45:40;12.70;;;10.13;;
25525;SDS011;13424;48.424;11.258;2023-11-22T09:48:18;15.93;;;10.35;;
25525;SDS011;13424;48.424;11.258;2023-11-22T09:54:13;15.75;;;11.60;;
25525;SDS011;13424;48.424;11.258;2023-11-22T09:56:41;14.35;;;10.02;;
25525;SDS011;13424;48.424;11.258;2023-11-22T09:59:15;16.33;;;10.18;;
25525;SDS011;13424;48.424;11.258;2023-11-22T10:01:44;15.15;;;10.80;;
25525;SDS011;13424;48.424;11.258;2023-11-22T10:04:10;15.23;;;10.68;;
25525;SDS011;13424;48.424;11.258;2023-11-22T10:06:36;15.55;;;10.00;;
25525;SDS011;13424;48.424;11.258;2023-11-22T10:09:03;18.83;;;12.27;;
25525;SDS011;13424;48.424;11.258;2023-11-22T10:11:34;16.50;;;10.88;;
25525;SDS011;13424;48.424;11.258;2023-11-22T10:14:08;16.08;;;11.27;;
25525;SDS011;13424;48.424;11.258;2023-11-22T10:16:34;17.48;;;10.93;;
25525;SDS011;13424;48.424;11.258;2023-11-22T10:19:00;22.15;;;12.50;;
25525;SDS011;13424;48.424;11.258;2023-11-22T10:21:29;36.05;;;18.00;;
25525;SDS011;13424;48.424;11.258;2023-11-22T10:24:02;19.58;;;12.88;;
25525;SDS011;13424;48.424;11.258;2023-11-22T10:26:29;18.58;;;11.05;;
25525;SDS011;13424;48.424;11.258;2023-11-22T10:28:56;19.60;;;10.88;;
25525;SDS011;13424;48.424;11.258;2023-11-22T10:31:24;16.40;;;9.88;;
25525;SDS011;13424;48.424;11.258;2023-11-22T10:33:50;18.45;;;11.27;;
25525;SDS011;13424;48.424;11.258;2023-11-22T10:36:18;15.27;;;9.43;;
25525;SDS011;13424;48.424;11.258;2023-11-22T10:38:46;19.40;;;10.68;;
25525;SDS011;13424;48.424;11.258;2023-11-22T10:41:13;12.60;;;9.18;;
25525;SDS011;13424;48.424;11.258;2023-11-22T10:43:40;13.13;;;9.82;;
25525;SDS011;13424;48.424;11.258;2023-11-22T10:46:07;14.82;;;9.20;;
25525;SDS011;13424;48.424;11.258;2023-11-22T10:48:37;13.40;;;8.77;;
25525;SDS011;13424;48.424;11.258;2023-11-22T10:51:05;16.10;;;10.32;;
25525;SDS011;13424;48.424;11.258;2023-11-22T10:53:33;23.35;;;12.73;;
25525;SDS011;13424;48.424;11.258;2023-11-22T10:56:14;18.52;;;9.40;;
25525;SDS011;13424;48.424;11.258;2023-11-22T10:58:47;12.13;;;8.25;;
25525;SDS011;13424;48.424;11.258;2023-11-22T11:01:16;14.23;;;8.55;;
25525;SDS011;13424;48.424;11.258;2023-11-22T11:04:09;11.95;;;8.70;;
25525;SDS011;13424;48.424;11.258;2023-11-22T11:06:51;16.80;;;8.52;;
25525;SDS011;13424;48.424;11.258;2023-11-22T11:09:23;16.05;;;11.15;;
25525;SDS011;13424;48.424;11.258;2023-11-22T11:11:54;13.27;;;8.98;;
25525;SDS011;13424;48.424;11.258;2023-11-22T11:14:22;13.15;;;8.98;;
25525;SDS011;13424;48.424;11.258;2023-11-22T11:16:49;10.02;;;7.40;;
25525;SDS011;13424;48.424;11.258;2023-11-22T11:19:19;11.87;;;7.73;;
25525;SDS011;13424;48.424;11.258;2023-11-22T11:21:50;11.82;;;8.02;;
25525;SDS011;13424;48.424;11.258;2023-11-22T11:24:17;11.57;;;8.68;;
25525;SDS011;13424;48.424;11.258;2023-11-22T11:26:49;12.23;;;8.30;;
25525;SDS011;13424;48.424;11.258;2023-11-22T11:29:34;14.05;;;9.60;;
25525;SDS011;13424;48.424;11.258;2023-11-22T11:32:10;15.27;;;8.95;;
25525;SDS011;13424;48.424;11.258;2023-11-22T11:34:57;14.00;;;9.70;;
25525;SDS011;13424;48.424;11.258;2023-11-22T11:37:25;14.55;;;9.13;;
25525;SDS011;13424;48.424;11.258;2023-11-22T11:39:54;14.70;;;10.55;;
25525;SDS011;13424;48.424;11.258;2023-11-22T11:42:22;14.70;;;9.63;;
25525;SDS011;13424;48.424;11.258;2023-11-22T11:45:06;13.70;;;10.07;;
25525;SDS011;13424;48.424;11.258;2023-11-22T11:47:33;13.10;;;9.50;;
25525;SDS011;13424;48.424;11.258;2023-11-22T11:49:59;14.73;;;10.32;;
25525;SDS011;13424;48.424;11.258;2023-11-22T11:52:26;14.25;;;10.25;;
25525;SDS011;13424;48.424;11.258;2023-11-22T11:55:05;15.40;;;10.15;;
25525;SDS011;13424;48.424;11.258;2023-11-22T11:57:31;13.27;;;9.15;;
25525;SDS011;13424;48.424;11.258;2023-11-22T11:59:57;13.27;;;9.07;;
25525;SDS011;13424;48.424;11.258;2023-11-22T12:02:24;16.90;;;10.30;;
25525;SDS011;13424;48.424;11.258;2023-11-22T12:04:50;16.33;;;10.05;;
25525;SDS011;13424;48.424;11.258;2023-11-22T12:07:17;14.85;;;10.05;;
25525;SDS011;13424;48.424;11.258;2023-11-22T12:09:43;13.88;;;9.52;;
25525;SDS011;13424;48.424;11.258;2023-11-22T12:12:09;15.02;;;9.38;;
25525;SDS011;13424;48.424;11.258;2023-11-22T12:14:38;17.88;;;9.90;;
25525;SDS011;13424;48.424;11.258;2023-11-22T12:17:05;14.30;;;9.13;;
25525;SDS011;13424;48.424;11.258;2023-11-22T12:19:33;12.93;;;9.75;;
25525;SDS011;13424;48.424;11.258;2023-11-22T12:21:59;13.23;;;9.38;;
25525;SDS011;13424;48.424;11.258;2023-11-22T12:24:25;16.27;;;9.30;;
25525;SDS011;13424;48.424;11.258;2023-11-22T12:26:52;14.32;;;9.40;;
25525;SDS011;13424;48.424;11.258;2023-11-22T12:29:20;14.75;;;10.10;;
25525;SDS011;13424;48.424;11.258;2023-11-22T12:31:51;15.48;;;9.85;;
25525;SDS011;13424;48.424;11.258;2023-11-22T12:34:22;13.70;;;9.15;;
25525;SDS011;13424;48.424;11.258;2023-11-22T12:36:50;14.90;;;10.38;;
25525;SDS011;13424;48.424;11.258;2023-11-22T12:39:16;14.70;;;8.68;;
25525;SDS011;13424;48.424;11.258;2023-11-22T12:41:50;16.00;;;10.82;;
25525;SDS011;13424;48.424;11.258;2023-11-22T12:44:18;17.88;;;11.63;;
25525;SDS011;13424;48.424;11.258;2023-11-22T12:46:52;15.27;;;10.40;;
25525;SDS011;13424;48.424;11.258;2023-11-22T12:49:27;17.60;;;10.70;;
25525;SDS011;13424;48.424;11.258;2023-11-22T12:51:54;17.77;;;10.30;;
25525;SDS011;13424;48.424;11.258;2023-11-22T12:54:24;17.35;;;11.45;;
25525;SDS011;13424;48.424;11.258;2023-11-22T12:56:52;19.35;;;12.10;;
25525;SDS011;13424;48.424;11.258;2023-11-22T12:59:24;17.58;;;11.60;;
25525;SDS011;13424;48.424;11.258;2023-11-22T13:01:55;16.80;;;11.18;;
25525;SDS011;13424;48.424;11.258;2023-11-22T13:04:23;17.17;;;11.95;;
25525;SDS011;13424;48.424;11.258;2023-11-22T13:06:49;16.98;;;12.13;;
25525;SDS011;13424;48.424;11.258;2023-11-22T13:09:14;19.75;;;10.30;;
25525;SDS011;13424;48.424;11.258;2023-11-22T13:11:42;17.67;;;11.15;;
25525;SDS011;13424;48.424;11.258;2023-11-22T13:14:11;17.58;;;9.77;;
25525;SDS011;13424;48.424;11.258;2023-11-22T13:16:44;17.90;;;11.27;;
25525;SDS011;13424;48.424;11.258;2023-11-22T13:19:10;15.50;;;10.15;;
25525;SDS011;13424;48.424;11.258;2023-11-22T13:21:36;13.93;;;10.10;;
25525;SDS011;13424;48.424;11.258;2023-11-22T13:24:03;12.95;;;9.05;;
25525;SDS011;13424;48.424;11.258;2023-11-22T13:26:32;16.25;;;11.55;;
25525;SDS011;13424;48.424;11.258;2023-11-22T13:28:59;12.20;;;8.00;;
25525;SDS011;13424;48.424;11.258;2023-11-22T13:31:32;14.35;;;9.13;;
25525;SDS011;13424;48.424;11.258;2023-11-22T13:33:58;14.63;;;10.48;;
25525;SDS011;13424;48.424;11.258;2023-11-22T13:36:24;12.52;;;9.43;;
25525;SDS011;13424;48.424;11.258;2023-11-22T13:38:50;12.50;;;8.73;;
25525;SDS011;13424;48.424;11.258;2023-11-22T13:41:17;14.98;;;9.57;;
25525;SDS011;13424;48.424;11.258;2023-11-22T13:43:43;16.45;;;11.02;;
25525;SDS011;13424;48.424;11.258;2023-11-22T13:46:11;11.45;;;7.82;;
25525;SDS011;13424;48.424;11.258;2023-11-22T13:48:37;13.32;;;9.15;;
25525;SDS011;13424;48.424;11.258;2023-11-22T13:51:04;18.38;;;11.30;;
25525;SDS011;13424;48.424;11.258;2023-11-22T13:53:32;18.08;;;11.18;;
25525;SDS011;13424;48.424;11.258;2023-11-22T13:56:00;13.20;;;10.35;;
25525;SDS011;13424;48.424;11.258;2023-11-22T13:58:27;11.65;;;7.97;;
25525;SDS011;13424;48.424;11.258;2023-11-22T14:00:53;15.68;;;8.45;;
25525;SDS011;13424;48.424;11.258;2023-11-22T14:03:19;11.23;;;8.20;;
25525;SDS011;13424;48.424;11.258;2023-11-22T14:05:47;12.50;;;8.70;;
25525;SDS011;13424;48.424;11.258;2023-11-22T14:08:13;11.77;;;8.23;;
25525;SDS011;13424;48.424;11.258;2023-11-22T14:10:40;11.77;;;8.10;;
25525;SDS011;13424;48.424;11.258;2023-11-22T14:13:06;12.60;;;8.52;;
25525;SDS011;13424;48.424;11.258;2023-11-22T14:15:34;12.43;;;8.88;;
25525;SDS011;13424;48.424;11.258;2023-11-22T14:18:00;14.73;;;10.45;;
25525;SDS011;13424;48.424;11.258;2023-11-22T14:24:21;13.90;;;8.85;;
25525;SDS011;13424;48.424;11.258;2023-11-22T14:26:47;14.35;;;9.10;;
25525;SDS011;13424;48.424;11.258;2023-11-22T14:29:14;17.73;;;10.65;;
25525;SDS011;13424;48.424;11.258;2023-11-22T14:31:50;14.23;;;9.32;;
25525;SDS011;13424;48.424;11.258;2023-11-22T14:34:16;12.35;;;9.75;;
25525;SDS011;13424;48.424;11.258;2023-11-22T14:36:42;14.98;;;10.15;;
25525;SDS011;13424;48.424;11.258;2023-11-22T14:39:08;14.75;;;9.68;;
25525;SDS011;13424;48.424;11.258;2023-11-22T14:41:37;13.15;;;9.15;;
25525;SDS011;13424;48.424;11.258;2023-11-22T14:44:03;15.15;;;9.52;;
25525;SDS011;13424;48.424;11.258;2023-11-22T14:46:30;14.10;;;9.45;;
25525;SDS011;13424;48.424;11.258;2023-11-22T14:48:56;15.55;;;10.02;;
25525;SDS011;13424;48.424;11.258;2023-11-22T14:51:22;14.48;;;10.15;;
25525;SDS011;13424;48.424;11.258;2023-11-22T14:53:48;15.07;;;10.30;;
25525;SDS011;13424;48.424;11.258;2023-11-22T14:56:15;15.98;;;10.27;;
25525;SDS011;13424;48.424;11.258;2023-11-22T15:03:07;13.60;;;9.48;;
25525;SDS011;13424;48.424;11.258;2023-11-22T15:05:35;18.35;;;11.60;;